createdAt,value
2023-04-10T00:01:44.725Z,49.80
2023-04-10T00:04:14.735Z,48.80
2023-04-10T00:06:43.490Z,49.00
2023-04-10T00:09:11.762Z,48.80
2023-04-10T00:11:40.540Z,49.60
2023-04-10T00:14:09.022Z,48.50
2023-04-10T00:16:37.510Z,49.50
2023-04-10T00:19:08.862Z,48.80
2023-04-10T00:21:41.672Z,49.40
2023-04-10T00:24:10.514Z,49.70
2023-04-10T00:26:41.662Z,51.40
2023-04-10T00:29:16.916Z,51.30
2023-04-10T00:31:55.577Z,50.10
2023-04-10T00:34:24.884Z,51.20
2023-04-10T00:36:53.585Z,51.00
2023-04-10T00:39:22.134Z,50.90
2023-04-10T00:41:50.578Z,49.90
2023-04-10T00:44:19.050Z,51.70
2023-04-10T00:46:48.321Z,51.00
2023-04-10T00:49:18.555Z,51.40
2023-04-10T00:51:48.061Z,51.70
2023-04-10T00:54:18.825Z,49.50
2023-04-10T00:56:47.263Z,53.00
2023-04-10T00:59:18.440Z,50.50
2023-04-10T01:01:46.980Z,50.60
2023-04-10T01:04:16.432Z,51.10
2023-04-10T01:07:27.888Z,53.00
2023-04-10T09:07:20.605Z,25.10
2023-04-10T09:09:50.198Z,26.40
2023-04-10T09:12:17.062Z,24.40
2023-04-10T09:14:48.430Z,24.00
2023-04-10T09:17:19.054Z,24.30
2023-04-10T09:19:47.926Z,24.70
2023-04-10T09:22:18.957Z,22.40
2023-04-10T09:24:46.881Z,21.20
2023-04-10T09:27:46.567Z,22.70
2023-04-10T09:30:33.828Z,23.40
2023-04-10T09:33:02.164Z,22.60
2023-04-10T09:35:38.645Z,21.80
2023-04-10T09:38:18.774Z,22.70
2023-04-10T09:40:47.751Z,21.80
2023-04-10T09:43:18.356Z,20.50
2023-04-10T09:45:50.498Z,20.80
2023-04-10T09:48:17.735Z,19.00
2023-04-10T09:50:45.021Z,16.30
2023-04-10T09:53:14.374Z,14.30
2023-04-10T09:55:42.010Z,14.00
2023-04-10T09:58:09.874Z,10.70
2023-04-10T10:00:47.787Z,6.70
2023-04-10T10:03:18.761Z,6.30
2023-04-10T10:05:50.019Z,4.80
2023-04-10T10:08:17.421Z,5.10
2023-04-10T10:10:47.351Z,4.90
2023-04-10T10:13:41.056Z,4.10
2023-04-10T10:16:18.443Z,4.20
2023-04-10T10:18:58.341Z,4.50
2023-04-10T10:21:27.512Z,4.50
2023-04-10T10:23:58.897Z,4.90
2023-04-10T10:26:26.412Z,4.10
2023-04-10T10:28:55.583Z,4.00
2023-04-10T10:31:25.144Z,4.50
2023-04-10T10:33:52.356Z,3.90
2023-04-10T10:36:20.017Z,3.80
2023-04-10T10:39:28.510Z,4.60
2023-04-10T10:42:49.963Z,4.00
2023-04-10T10:45:21.244Z,4.60
2023-04-10T10:47:54.124Z,4.30
2023-04-10T10:53:31.682Z,3.90
2023-04-10T10:55:58.374Z,4.80
2023-04-10T10:58:48.249Z,4.80
2023-04-10T11:01:35.290Z,4.50
2023-04-10T11:04:41.300Z,4.30
2023-04-10T11:07:08.280Z,5.00
2023-04-10T11:09:46.545Z,4.60
2023-04-10T11:12:14.343Z,4.50
2023-04-10T11:14:43.479Z,4.90
2023-04-10T11:17:11.529Z,3.90
2023-04-10T11:20:01.147Z,4.00
2023-04-10T11:22:28.448Z,4.30
2023-04-10T11:25:01.237Z,4.50
2023-04-10T11:27:46.215Z,4.10
2023-04-10T11:30:32.560Z,4.40
2023-04-10T11:33:03.947Z,4.10
2023-04-10T11:35:31.648Z,4.60
2023-04-10T11:38:13.471Z,4.90
2023-04-10T11:41:13.128Z,5.20
2023-04-10T11:43:40.816Z,5.30
2023-04-10T11:46:08.161Z,3.60
2023-04-10T11:48:37.188Z,3.70
2023-04-10T11:51:12.234Z,4.70
2023-04-10T11:53:40.649Z,10.90
2023-04-10T11:56:23.548Z,4.90
2023-04-10T11:58:53.740Z,4.50
2023-04-10T12:01:22.148Z,4.50
2023-04-10T12:03:50.053Z,4.70
2023-04-10T12:06:19.297Z,4.60
2023-04-10T12:08:50.323Z,3.80
2023-04-10T12:11:22.501Z,4.20
2023-04-10T12:13:55.145Z,4.00
2023-04-10T12:18:49.971Z,3.90
2023-04-10T12:21:17.336Z,3.70
2023-04-10T12:23:44.219Z,4.20
2023-04-10T12:26:16.303Z,4.20
2023-04-10T12:28:54.833Z,3.90
2023-04-10T12:31:35.970Z,3.90
2023-04-10T12:34:04.890Z,3.60
2023-04-10T12:36:34.279Z,4.00
2023-04-10T12:39:04.187Z,3.60
2023-04-10T12:41:33.766Z,3.70
2023-04-10T12:44:11.959Z,4.00
2023-04-10T12:46:40.686Z,3.80
2023-04-10T12:49:11.865Z,4.10
2023-04-10T12:51:46.656Z,3.40
2023-04-10T12:54:32.695Z,3.40
2023-04-10T12:57:01.216Z,3.70
2023-04-10T12:59:29.468Z,3.40
2023-04-10T13:01:56.634Z,3.60
2023-04-10T13:04:23.655Z,3.30
2023-04-10T13:06:53.853Z,3.70
2023-04-10T13:26:51.034Z,4.00
2023-04-10T13:29:19.552Z,3.70
2023-04-10T13:31:47.774Z,3.70
2023-04-10T13:34:16.674Z,3.90
2023-04-10T13:36:45.382Z,3.90
2023-04-10T13:39:14.190Z,4.50
2023-04-10T13:41:44.913Z,3.60
2023-04-10T13:44:16.015Z,3.70
2023-04-10T13:46:44.707Z,3.90
2023-04-10T13:49:17.204Z,4.10
2023-04-10T13:51:46.042Z,4.00
2023-04-10T13:54:17.044Z,4.30
2023-04-10T13:56:46.702Z,4.30
2023-04-10T13:59:15.072Z,4.10
2023-04-10T14:01:43.486Z,4.60
2023-04-10T14:04:12.094Z,3.80
2023-04-10T14:06:40.848Z,3.80
2023-04-10T14:09:09.458Z,4.20
2023-04-10T14:11:38.263Z,4.10
2023-04-10T14:14:06.777Z,4.00
2023-04-10T14:16:35.206Z,4.00
2023-04-10T14:19:03.132Z,3.90
2023-04-10T14:21:31.849Z,4.10
2023-04-10T14:24:02.463Z,3.90
2023-04-10T14:26:30.909Z,3.60
2023-04-10T14:28:59.216Z,4.00
2023-04-10T14:31:29.530Z,3.70
2023-04-10T14:33:57.674Z,3.70
2023-04-10T14:36:26.013Z,4.40
2023-04-10T14:38:54.357Z,3.70
2023-04-10T14:41:23.043Z,4.20
2023-04-10T14:43:52.594Z,3.90
2023-04-10T14:46:21.157Z,4.50
2023-04-10T14:48:51.428Z,3.80
2023-04-10T14:51:19.854Z,3.80
2023-04-10T14:53:47.916Z,3.60
2023-04-10T14:56:16.389Z,3.50
2023-04-10T14:59:27.190Z,3.50
2023-04-10T15:02:39.451Z,3.60
2023-04-10T15:05:28.667Z,4.10
2023-04-10T15:08:07.594Z,4.70
2023-04-10T15:10:36.820Z,3.90
2023-04-10T15:13:06.291Z,3.60
2023-04-10T15:15:34.950Z,3.50
2023-04-10T15:18:03.625Z,3.70
2023-04-10T15:20:31.735Z,3.90
2023-04-10T15:23:03.841Z,3.50
2023-04-10T15:25:35.417Z,3.70
2023-04-10T15:28:04.062Z,4.10
2023-04-10T15:30:32.341Z,4.90
2023-04-10T15:33:01.113Z,4.00
2023-04-10T15:35:31.540Z,3.70
2023-04-10T15:37:59.971Z,3.60
2023-04-10T15:40:28.911Z,4.50
2023-04-10T15:42:57.089Z,3.50
2023-04-10T15:45:25.601Z,3.70
2023-04-10T15:47:56.170Z,3.40
2023-04-10T15:50:24.882Z,3.20
2023-04-10T15:52:53.193Z,4.20
2023-04-10T15:55:21.927Z,3.90
2023-04-10T15:57:50.394Z,3.70
2023-04-10T16:00:19.115Z,3.60
2023-04-10T16:02:47.364Z,3.00
2023-04-10T16:05:18.786Z,2.70
2023-04-10T16:07:52.631Z,2.40
2023-04-10T16:10:21.414Z,3.00
2023-04-10T16:12:50.292Z,2.70
2023-04-10T16:15:19.079Z,2.90
2023-04-10T16:17:47.800Z,2.30
2023-04-10T16:20:16.626Z,2.90
2023-04-10T16:22:44.968Z,3.00
2023-04-10T16:25:16.480Z,3.20
2023-04-10T16:27:45.085Z,3.40
2023-04-10T16:30:13.666Z,3.10
2023-04-10T16:32:42.362Z,3.90
2023-04-10T16:35:10.885Z,3.20
2023-04-10T16:37:39.517Z,3.40
2023-04-10T16:40:08.291Z,3.40
2023-04-10T16:42:36.913Z,3.90
2023-04-10T16:45:05.393Z,3.60
2023-04-10T16:47:36.697Z,3.60
2023-04-10T16:50:12.350Z,3.90
2023-04-10T16:52:40.627Z,3.90
2023-04-10T16:55:13.365Z,4.70
2023-04-10T16:57:42.516Z,4.40
2023-04-10T17:00:11.730Z,4.40
2023-04-10T17:02:40.397Z,4.60
2023-04-10T17:05:08.713Z,6.60
2023-04-10T17:07:36.926Z,7.30
2023-04-10T17:10:05.727Z,8.80
2023-04-10T17:12:34.080Z,5.30
2023-04-10T17:15:02.502Z,4.80
2023-04-10T17:17:31.714Z,4.60
2023-04-10T17:20:00.343Z,8.20
2023-04-10T17:22:31.478Z,5.60
2023-04-10T17:25:00.506Z,5.30
2023-04-10T17:27:29.940Z,5.30
2023-04-10T17:29:58.547Z,5.50
2023-04-10T17:32:29.727Z,5.20
2023-04-10T17:34:58.450Z,5.90
2023-04-10T17:37:27.137Z,5.40
2023-04-10T17:39:56.090Z,5.70
2023-04-10T17:42:56.019Z,5.90
2023-04-10T17:45:24.433Z,6.00
2023-04-10T17:47:56.055Z,5.50
2023-04-10T17:50:24.504Z,6.50
2023-04-10T17:52:53.246Z,6.40
2023-04-10T17:55:27.693Z,7.20
2023-04-10T17:57:58.092Z,5.90
2023-04-10T18:00:36.880Z,6.80
2023-04-10T18:03:05.243Z,7.30
2023-04-10T18:05:36.799Z,7.00
2023-04-10T18:08:05.814Z,10.10
2023-04-10T18:10:33.890Z,12.50
2023-04-10T18:13:02.183Z,14.30
2023-04-10T18:15:32.732Z,9.50
2023-04-10T18:18:01.390Z,8.80
2023-04-10T18:20:29.690Z,8.60
2023-04-10T18:22:58.319Z,8.70
2023-04-10T18:25:31.611Z,8.30
2023-04-10T18:28:13.663Z,7.90
2023-04-10T18:30:44.883Z,8.20
2023-04-10T18:33:14.921Z,6.70
2023-04-10T18:35:43.650Z,7.20
2023-04-10T18:38:11.991Z,7.00
2023-04-10T18:40:40.498Z,6.90
2023-04-10T18:43:09.292Z,8.10
2023-04-10T18:45:37.679Z,7.70
2023-04-10T18:48:08.096Z,8.20
2023-04-10T18:50:39.242Z,7.50
2023-04-10T18:53:07.950Z,7.80
2023-04-10T18:55:36.422Z,9.10
2023-04-10T18:58:05.063Z,8.20
2023-04-10T19:00:34.316Z,8.20
2023-04-10T19:03:03.248Z,9.90
2023-04-10T19:05:32.748Z,16.50
2023-04-10T19:08:04.728Z,17.10
2023-04-10T19:10:37.390Z,18.10
2023-04-10T19:15:36.012Z,15.20
2023-04-10T19:18:04.429Z,16.40
2023-04-10T19:20:49.333Z,14.60
2023-04-10T19:23:20.840Z,15.20
2023-04-10T19:25:55.222Z,14.40
2023-04-10T19:28:23.795Z,14.30
2023-04-10T19:30:52.852Z,14.30
2023-04-10T19:33:21.524Z,13.70
2023-04-10T19:35:49.722Z,13.10
2023-04-10T19:38:18.982Z,13.50
2023-04-10T19:40:47.591Z,13.90
2023-04-10T19:43:15.861Z,12.30
2023-04-10T19:45:44.472Z,13.00
2023-04-10T19:48:15.880Z,12.70
2023-04-10T19:50:44.281Z,13.20
2023-04-10T19:53:15.689Z,13.30
2023-04-10T19:55:47.126Z,13.50
2023-04-10T19:58:30.466Z,13.00
2023-04-10T20:01:08.846Z,13.00
2023-04-10T20:03:38.695Z,13.30
2023-04-10T20:06:08.510Z,14.80
2023-04-10T20:08:36.918Z,13.60
2023-04-10T20:11:06.375Z,14.40
2023-04-10T20:13:35.226Z,13.80
2023-04-10T20:16:03.674Z,14.50
2023-04-10T20:18:32.169Z,13.90
2023-04-10T20:21:02.970Z,14.00
2023-04-10T20:23:34.638Z,14.20
2023-04-10T20:26:02.966Z,14.10
2023-04-10T20:28:31.767Z,13.40
2023-04-10T20:31:00.345Z,13.60
2023-04-10T20:33:28.398Z,12.70
2023-04-10T20:36:14.543Z,13.30
2023-04-10T20:38:42.960Z,12.90
2023-04-10T20:41:13.895Z,13.70
2023-04-10T20:43:41.846Z,14.00
2023-04-10T20:46:10.053Z,16.30
2023-04-10T20:48:38.374Z,15.40
2023-04-10T20:51:07.308Z,17.20
2023-04-10T20:53:38.003Z,17.90
2023-04-10T20:56:06.482Z,18.70
2023-04-10T20:58:34.642Z,19.40
2023-04-10T21:01:02.975Z,18.30
2023-04-10T21:03:32.130Z,17.30
2023-04-10T21:06:03.596Z,16.90
2023-04-10T21:08:34.475Z,16.70
2023-04-10T21:11:02.940Z,16.10
2023-04-10T21:13:31.305Z,14.40
2023-04-10T21:15:59.341Z,15.10
2023-04-10T21:18:27.771Z,15.80
2023-04-10T21:20:55.896Z,14.40
2023-04-10T21:23:26.863Z,13.20
2023-04-10T21:25:55.053Z,14.20
2023-04-10T21:28:25.703Z,14.10
2023-04-10T21:31:00.365Z,14.40
2023-04-10T21:33:28.680Z,14.10
2023-04-10T21:35:59.785Z,14.70
2023-04-10T21:38:28.355Z,15.80
2023-04-10T21:40:57.403Z,15.40
2023-04-10T21:43:25.881Z,14.80
2023-04-10T21:45:54.492Z,16.00
2023-04-10T21:48:23.099Z,17.40
2023-04-10T21:50:52.930Z,18.70
2023-04-10T21:53:21.577Z,21.00
2023-04-10T21:55:50.315Z,24.90
2023-04-10T21:58:18.762Z,27.60
2023-04-10T22:00:47.437Z,29.90
2023-04-10T22:03:16.336Z,28.50
2023-04-10T22:05:44.869Z,28.20
2023-04-10T22:08:13.905Z,30.10
2023-04-10T22:10:44.981Z,29.70
2023-04-10T22:13:27.462Z,31.40
2023-04-10T22:16:02.545Z,30.10
2023-04-10T22:18:31.522Z,29.30
2023-04-10T22:20:59.691Z,29.70
2023-04-10T22:23:28.066Z,31.60
2023-04-10T22:25:56.293Z,34.20
2023-04-10T22:28:24.649Z,34.60
2023-04-10T22:30:52.940Z,35.90
2023-04-10T22:33:21.134Z,36.70
2023-04-10T22:35:49.604Z,35.70
2023-04-10T22:38:18.112Z,33.50
2023-04-10T22:40:46.565Z,34.30
2023-04-10T22:43:15.006Z,35.00
2023-04-10T22:45:45.819Z,35.70
2023-04-10T22:48:14.297Z,36.10
2023-04-10T22:50:42.720Z,34.50
2023-04-10T22:53:11.523Z,37.60
2023-04-10T22:55:40.330Z,37.50
2023-04-10T22:58:08.589Z,35.30
2023-04-10T23:00:37.109Z,33.50
2023-04-10T23:03:05.810Z,31.80
2023-04-10T23:05:34.156Z,34.50
2023-04-10T23:08:02.311Z,35.30
2023-04-10T23:10:30.709Z,35.40
2023-04-10T23:13:01.861Z,35.90
2023-04-10T23:15:29.929Z,34.20
2023-04-10T23:17:58.113Z,36.70
2023-04-10T23:20:26.334Z,38.80
2023-04-10T23:22:57.611Z,39.20
2023-04-10T23:25:28.508Z,35.20
2023-04-10T23:27:57.993Z,35.20
2023-04-10T23:30:28.947Z,34.50
2023-04-10T23:32:57.666Z,38.30
2023-04-10T23:35:27.586Z,37.30
2023-04-10T23:37:56.066Z,36.10
2023-04-10T23:40:25.212Z,34.50
2023-04-10T23:42:53.289Z,35.10
2023-04-10T23:45:21.585Z,35.10
2023-04-10T23:47:50.963Z,31.20
2023-04-10T23:50:19.676Z,28.70
2023-04-10T23:52:53.822Z,31.30
2023-04-10T23:55:21.985Z,27.90
2023-04-10T23:57:50.387Z,29.50
